sensor_id;sensor_type;location;lat;lon;timestamp;pressure;altitude;pressure_sealevel;temperature;humidity
71770;BME280;66386;52.122;5.420;2023-02-22T00:01:32;101686.72;;;6.28;91.89
71770;BME280;66386;52.122;5.420;2023-02-22T00:04:12;101679.09;;;6.25;91.80
71770;BME280;66386;52.122;5.420;2023-02-22T00:06:41;101672.28;;;6.24;91.92
71770;BME280;66386;52.122;5.420;2023-02-22T00:09:07;101685.03;;;6.24;91.92
71770;BME280;66386;52.122;5.420;2023-02-22T00:11:35;101676.56;;;6.22;91.79
71770;BME280;66386;52.122;5.420;2023-02-22T00:14:04;101683.34;;;6.23;91.84
71770;BME280;66386;52.122;5.420;2023-02-22T00:16:30;101678.25;;;6.22;91.91
71770;BME280;66386;52.122;5.420;2023-02-22T00:18:57;101682.50;;;6.24;92.08
71770;BME280;66386;52.122;5.420;2023-02-22T00:21:23;101672.28;;;6.23;91.74
71770;BME280;66386;52.122;5.420;2023-02-22T00:23:50;101671.44;;;6.22;92.17
71770;BME280;66386;52.122;5.420;2023-02-22T00:26:21;101670.56;;;6.23;92.10
71770;BME280;66386;52.122;5.420;2023-02-22T00:28:51;101679.94;;;6.24;92.04
71770;BME280;66386;52.122;5.420;2023-02-22T00:31:19;101676.53;;;6.25;91.97
71770;BME280;66386;52.122;5.420;2023-02-22T00:33:46;101679.13;;;6.22;92.08
71770;BME280;66386;52.122;5.420;2023-02-22T00:36:13;101678.25;;;6.22;92.16
71770;BME280;66386;52.122;5.420;2023-02-22T00:38:40;101674.84;;;6.23;91.79
71770;BME280;66386;52.122;5.420;2023-02-22T00:41:07;101674.84;;;6.21;92.16
71770;BME280;66386;52.122;5.420;2023-02-22T00:43:34;101687.66;;;6.17;92.10
71770;BME280;66386;52.122;5.420;2023-02-22T00:46:00;101674.91;;;6.15;92.08
71770;BME280;66386;52.122;5.420;2023-02-22T00:48:27;101669.78;;;6.15;91.93
71770;BME280;66386;52.122;5.420;2023-02-22T00:50:53;101678.28;;;6.14;91.97
71770;BME280;66386;52.122;5.420;2023-02-22T00:53:24;101671.50;;;6.11;92.08
71770;BME280;66386;52.122;5.420;2023-02-22T00:55:52;101657.88;;;6.11;92.07
71770;BME280;66386;52.122;5.420;2023-02-22T00:58:19;101653.63;;;6.11;91.88
71770;BME280;66386;52.122;5.420;2023-02-22T01:00:45;101652.78;;;6.11;91.98
71770;BME280;66386;52.122;5.420;2023-02-22T01:03:16;101649.41;;;6.09;91.99
71770;BME280;66386;52.122;5.420;2023-02-22T01:05:43;101650.25;;;6.06;91.95
71770;BME280;66386;52.122;5.420;2023-02-22T01:08:11;101648.56;;;6.07;91.79
71770;BME280;66386;52.122;5.420;2023-02-22T01:10:39;101646.00;;;6.07;91.92
71770;BME280;66386;52.122;5.420;2023-02-22T01:13:07;101640.91;;;6.04;92.02
71770;BME280;66386;52.122;5.420;2023-02-22T01:15:36;101641.75;;;6.04;92.14
71770;BME280;66386;52.122;5.420;2023-02-22T01:18:03;101638.38;;;6.02;92.36
71770;BME280;66386;52.122;5.420;2023-02-22T01:20:31;101645.19;;;6.03;92.26
71770;BME280;66386;52.122;5.420;2023-02-22T01:23:00;101644.28;;;6.06;92.29
71770;BME280;66386;52.122;5.420;2023-02-22T01:25:30;101637.53;;;6.03;92.32
71770;BME280;66386;52.122;5.420;2023-02-22T01:27:58;101633.25;;;6.04;92.44
71770;BME280;66386;52.122;5.420;2023-02-22T01:30:28;101635.81;;;6.04;92.49
71770;BME280;66386;52.122;5.420;2023-02-22T01:32:56;101633.25;;;6.04;92.61
71770;BME280;66386;52.122;5.420;2023-02-22T01:35:25;101633.25;;;6.04;92.39
71770;BME280;66386;52.122;5.420;2023-02-22T01:37:53;101635.81;;;6.02;92.62
71770;BME280;66386;52.122;5.420;2023-02-22T01:40:27;101628.16;;;6.02;92.50
71770;BME280;66386;52.122;5.420;2023-02-22T01:42:57;101623.91;;;6.03;92.75
71770;BME280;66386;52.122;5.420;2023-02-22T01:48:17;101619.69;;;5.99;92.55
71770;BME280;66386;52.122;5.420;2023-02-22T01:50:51;101613.72;;;5.95;92.62
71770;BME280;66386;52.122;5.420;2023-02-22T01:53:22;101612.00;;;5.92;92.34
71770;BME280;66386;52.122;5.420;2023-02-22T01:55:50;101603.53;;;5.90;92.55
71770;BME280;66386;52.122;5.420;2023-02-22T01:58:19;101612.91;;;5.90;92.44
71770;BME280;66386;52.122;5.420;2023-02-22T02:00:47;101614.59;;;5.88;92.43
71770;BME280;66386;52.122;5.420;2023-02-22T02:03:17;101612.03;;;5.86;92.35
71770;BME280;66386;52.122;5.420;2023-02-22T02:05:45;101606.13;;;5.81;92.19
71770;BME280;66386;52.122;5.420;2023-02-22T02:08:34;101607.81;;;5.79;92.15
71770;BME280;66386;52.122;5.420;2023-02-22T02:11:04;101602.72;;;5.79;92.04
71770;BME280;66386;52.122;5.420;2023-02-22T02:13:34;101601.91;;;5.77;92.08
71770;BME280;66386;52.122;5.420;2023-02-22T02:16:01;101588.28;;;5.78;92.09
71770;BME280;66386;52.122;5.420;2023-02-22T02:18:28;101594.22;;;5.80;91.94
71770;BME280;66386;52.122;5.420;2023-02-22T02:32:19;101577.31;;;5.59;91.80
71770;BME280;66386;52.122;5.420;2023-02-22T02:42:52;101565.41;;;5.63;92.07
71770;BME280;66386;52.122;5.420;2023-02-22T02:45:27;101566.25;;;5.62;92.07
71770;BME280;66386;52.122;5.420;2023-02-22T02:47:57;101557.78;;;5.56;92.07
71770;BME280;66386;52.122;5.420;2023-02-22T02:50:35;101564.59;;;5.50;92.11
71770;BME280;66386;52.122;5.420;2023-02-22T02:53:05;101561.22;;;5.45;91.98
71770;BME280;66386;52.122;5.420;2023-02-22T02:55:33;101557.84;;;5.38;91.91
71770;BME280;66386;52.122;5.420;2023-02-22T02:58:04;101552.75;;;5.38;91.76
71770;BME280;66386;52.122;5.420;2023-02-22T03:00:38;101554.44;;;5.36;91.74
71770;BME280;66386;52.122;5.420;2023-02-22T03:03:16;101556.19;;;5.31;91.81
71770;BME280;66386;52.122;5.420;2023-02-22T03:09:48;101540.94;;;5.21;91.71
71770;BME280;66386;52.122;5.420;2023-02-22T03:12:37;101542.63;;;5.19;91.63
71770;BME280;66386;52.122;5.420;2023-02-22T03:16:03;101546.03;;;5.18;92.00
71770;BME280;66386;52.122;5.420;2023-02-22T03:24:27;101535.81;;;5.17;91.89
71770;BME280;66386;52.122;5.420;2023-02-22T03:27:05;101535.81;;;5.15;92.21
71770;BME280;66386;52.122;5.420;2023-02-22T03:29:38;101528.19;;;5.15;92.08
71770;BME280;66386;52.122;5.420;2023-02-22T03:32:09;101534.97;;;5.16;91.96
71770;BME280;66386;52.122;5.420;2023-02-22T03:34:42;101534.16;;;5.14;92.00
71770;BME280;66386;52.122;5.420;2023-02-22T03:37:15;101525.66;;;5.11;92.01
71770;BME280;66386;52.122;5.420;2023-02-22T03:39:44;101528.22;;;5.07;92.11
71770;BME280;66386;52.122;5.420;2023-02-22T03:42:23;101523.13;;;5.03;92.18
71770;BME280;66386;52.122;5.420;2023-02-22T03:44:54;101529.09;;;4.99;91.99
71770;BME280;66386;52.122;5.420;2023-02-22T03:47:35;101522.31;;;5.01;91.89
71770;BME280;66386;52.122;5.420;2023-02-22T03:50:07;101517.19;;;4.98;91.88
71770;BME280;66386;52.122;5.420;2023-02-22T03:52:36;101517.19;;;4.95;91.91
71770;BME280;66386;52.122;5.420;2023-02-22T03:55:03;101512.09;;;4.95;92.15
71770;BME280;66386;52.122;5.420;2023-02-22T03:57:39;101515.53;;;4.95;92.07
71770;BME280;66386;52.122;5.420;2023-02-22T04:00:09;101510.44;;;4.97;92.25
71770;BME280;66386;52.122;5.420;2023-02-22T04:02:36;101508.72;;;4.97;92.35
71770;BME280;66386;52.122;5.420;2023-02-22T04:05:03;101510.44;;;4.97;92.49
71770;BME280;66386;52.122;5.420;2023-02-22T04:07:29;101505.31;;;4.97;92.58
71770;BME280;66386;52.122;5.420;2023-02-22T04:09:56;101502.78;;;4.95;92.59
71770;BME280;66386;52.122;5.420;2023-02-22T04:12:22;101501.94;;;4.93;92.68
71770;BME280;66386;52.122;5.420;2023-02-22T04:14:49;101496.00;;;4.94;92.67
71770;BME280;66386;52.122;5.420;2023-02-22T04:17:15;101498.53;;;4.96;92.49
71770;BME280;66386;52.122;5.420;2023-02-22T04:19:41;101498.53;;;4.93;92.58
71770;BME280;66386;52.122;5.420;2023-02-22T04:22:10;101486.66;;;4.92;92.88
71770;BME280;66386;52.122;5.420;2023-02-22T04:24:37;101487.50;;;4.95;92.91
71770;BME280;66386;52.122;5.420;2023-02-22T04:27:03;101487.50;;;4.94;93.29
71770;BME280;66386;52.122;5.420;2023-02-22T04:29:30;101487.50;;;4.94;92.91
71770;BME280;66386;52.122;5.420;2023-02-22T04:31:56;101480.72;;;4.91;92.83
71770;BME280;66386;52.122;5.420;2023-02-22T04:34:23;101481.59;;;4.84;92.96
71770;BME280;66386;52.122;5.420;2023-02-22T04:36:49;101479.88;;;4.83;92.98
71770;BME280;66386;52.122;5.420;2023-02-22T04:39:16;101475.66;;;4.83;92.98
71770;BME280;66386;52.122;5.420;2023-02-22T04:41:42;101464.59;;;4.83;93.06
71770;BME280;66386;52.122;5.420;2023-02-22T04:44:08;101459.50;;;4.83;93.21
71770;BME280;66386;52.122;5.420;2023-02-22T04:46:35;101463.75;;;4.82;93.13
71770;BME280;66386;52.122;5.420;2023-02-22T04:49:02;101466.31;;;4.78;93.24
71770;BME280;66386;52.122;5.420;2023-02-22T04:51:28;101468.00;;;4.77;93.26
71770;BME280;66386;52.122;5.420;2023-02-22T04:53:55;101457.84;;;4.72;93.41
71770;BME280;66386;52.122;5.420;2023-02-22T04:56:22;101450.22;;;4.69;93.63
71770;BME280;66386;52.122;5.420;2023-02-22T04:58:48;101454.47;;;4.69;93.40
71770;BME280;66386;52.122;5.420;2023-02-22T05:01:15;101430.69;;;4.68;93.56
71770;BME280;66386;52.122;5.420;2023-02-22T05:03:42;101443.41;;;4.70;93.50
71770;BME280;66386;52.122;5.420;2023-02-22T05:06:09;101439.19;;;4.67;93.65
71770;BME280;66386;52.122;5.420;2023-02-22T05:08:37;101445.97;;;4.68;93.79
71770;BME280;66386;52.122;5.420;2023-02-22T05:11:04;101437.47;;;4.68;93.77
71770;BME280;66386;52.122;5.420;2023-02-22T05:13:31;101426.47;;;4.69;94.04
71770;BME280;66386;52.122;5.420;2023-02-22T05:15:57;101427.28;;;4.71;93.87
71770;BME280;66386;52.122;5.420;2023-02-22T05:18:24;101430.69;;;4.68;93.82
71770;BME280;66386;52.122;5.420;2023-02-22T05:20:51;101429.00;;;4.63;93.88
71770;BME280;66386;52.122;5.420;2023-02-22T05:23:17;101429.88;;;4.62;94.00
71770;BME280;66386;52.122;5.420;2023-02-22T05:25:44;101429.88;;;4.60;94.13
71770;BME280;66386;52.122;5.420;2023-02-22T05:28:13;101420.53;;;4.56;94.11
71770;BME280;66386;52.122;5.420;2023-02-22T05:30:40;101426.47;;;4.57;94.28
71770;BME280;66386;52.122;5.420;2023-02-22T05:33:07;101423.91;;;4.58;94.45
71770;BME280;66386;52.122;5.420;2023-02-22T05:35:34;101418.81;;;4.58;94.42
71770;BME280;66386;52.122;5.420;2023-02-22T05:38:03;101417.16;;;4.57;94.29
71770;BME280;66386;52.122;5.420;2023-02-22T05:40:30;101418.00;;;4.56;94.62
71770;BME280;66386;52.122;5.420;2023-02-22T05:42:57;101420.53;;;4.58;94.88
71770;BME280;66386;52.122;5.420;2023-02-22T05:45:26;101413.75;;;4.55;94.54
71770;BME280;66386;52.122;5.420;2023-02-22T05:47:53;101412.03;;;4.55;94.73
71770;BME280;66386;52.122;5.420;2023-02-22T05:50:20;101418.81;;;4.60;94.95
71770;BME280;66386;52.122;5.420;2023-02-22T05:52:47;101406.97;;;4.60;94.98
71770;BME280;66386;52.122;5.420;2023-02-22T05:55:16;101407.78;;;4.61;95.09
71770;BME280;66386;52.122;5.420;2023-02-22T05:57:43;101406.97;;;4.62;95.22
71770;BME280;66386;52.122;5.420;2023-02-22T06:00:16;101401.88;;;4.62;95.05
71770;BME280;66386;52.122;5.420;2023-02-22T06:02:43;101396.78;;;4.62;95.24
71770;BME280;66386;52.122;5.420;2023-02-22T06:05:10;101391.69;;;4.62;95.35
71770;BME280;66386;52.122;5.420;2023-02-22T06:07:36;101389.13;;;4.65;95.40
71770;BME280;66386;52.122;5.420;2023-02-22T06:10:03;101394.22;;;4.65;95.53
71770;BME280;66386;52.122;5.420;2023-02-22T06:12:30;101387.41;;;4.67;95.44
71770;BME280;66386;52.122;5.420;2023-02-22T06:14:56;101386.56;;;4.68;95.60
71770;BME280;66386;52.122;5.420;2023-02-22T06:17:23;101386.56;;;4.68;95.67
71770;BME280;66386;52.122;5.420;2023-02-22T06:19:49;101376.34;;;4.71;95.54
71770;BME280;66386;52.122;5.420;2023-02-22T06:22:17;101373.81;;;4.71;95.69
71770;BME280;66386;52.122;5.420;2023-02-22T06:24:44;101378.91;;;4.68;95.78
71770;BME280;66386;52.122;5.420;2023-02-22T06:27:11;101384.03;;;4.66;95.76
71770;BME280;66386;52.122;5.420;2023-02-22T06:29:37;101389.97;;;4.65;95.92
71770;BME280;66386;52.122;5.420;2023-02-22T06:32:04;101390.78;;;4.64;95.93
71770;BME280;66386;52.122;5.420;2023-02-22T06:34:30;101392.50;;;4.62;96.02
71770;BME280;66386;52.122;5.420;2023-02-22T06:36:57;101385.72;;;4.58;95.98
71770;BME280;66386;52.122;5.420;2023-02-22T06:39:25;101395.06;;;4.61;96.08
71770;BME280;66386;52.122;5.420;2023-02-22T06:41:51;101386.59;;;4.60;96.10
71770;BME280;66386;52.122;5.420;2023-02-22T06:44:20;101380.63;;;4.58;96.20
71770;BME280;66386;52.122;5.420;2023-02-22T06:46:48;101382.34;;;4.58;96.30
71770;BME280;66386;52.122;5.420;2023-02-22T06:49:18;101381.50;;;4.59;96.29
71770;BME280;66386;52.122;5.420;2023-02-22T06:51:45;101370.44;;;4.60;96.29
71770;BME280;66386;52.122;5.420;2023-02-22T06:54:13;101367.91;;;4.58;96.37
71770;BME280;66386;52.122;5.420;2023-02-22T06:56:39;101364.53;;;4.58;96.50
71770;BME280;66386;52.122;5.420;2023-02-22T06:59:06;101373.88;;;4.60;96.18
71770;BME280;66386;52.122;5.420;2023-02-22T07:01:33;101369.59;;;4.64;96.45
71770;BME280;66386;52.122;5.420;2023-02-22T07:04:00;101361.13;;;4.65;96.55
71770;BME280;66386;52.122;5.420;2023-02-22T07:06:27;101378.94;;;4.65;96.48
71770;BME280;66386;52.122;5.420;2023-02-22T07:08:53;101367.91;;;4.63;96.60
71770;BME280;66386;52.122;5.420;2023-02-22T07:11:20;101361.13;;;4.65;96.60
71770;BME280;66386;52.122;5.420;2023-02-22T07:13:46;101359.41;;;4.65;96.68
71770;BME280;66386;52.122;5.420;2023-02-22T07:16:13;101359.41;;;4.67;96.60
71770;BME280;66386;52.122;5.420;2023-02-22T07:18:39;101360.28;;;4.66;96.54
71770;BME280;66386;52.122;5.420;2023-02-22T07:21:05;101374.69;;;4.64;96.72
71770;BME280;66386;52.122;5.420;2023-02-22T07:23:32;101371.31;;;4.60;96.70
71770;BME280;66386;52.122;5.420;2023-02-22T07:26:00;101377.25;;;4.56;96.57
71770;BME280;66386;52.122;5.420;2023-02-22T07:28:27;101377.28;;;4.50;96.53
71770;BME280;66386;52.122;5.420;2023-02-22T07:30:54;101373.88;;;4.52;96.80
71770;BME280;66386;52.122;5.420;2023-02-22T07:33:20;101376.41;;;4.52;96.71
71770;BME280;66386;52.122;5.420;2023-02-22T07:35:48;101374.72;;;4.54;96.80
71770;BME280;66386;52.122;5.420;2023-02-22T07:38:17;101374.72;;;4.54;96.96
71770;BME280;66386;52.122;5.420;2023-02-22T07:40:45;101373.88;;;4.59;96.57
71770;BME280;66386;52.122;5.420;2023-02-22T07:43:15;101387.41;;;4.65;97.02
71770;BME280;66386;52.122;5.420;2023-02-22T07:45:42;101376.38;;;4.68;96.93
71770;BME280;66386;52.122;5.420;2023-02-22T07:48:09;101377.22;;;4.67;96.84
71770;BME280;66386;52.122;5.420;2023-02-22T07:50:38;101387.38;;;4.70;96.98
71770;BME280;66386;52.122;5.420;2023-02-22T07:53:09;101387.41;;;4.68;97.02
71770;BME280;66386;52.122;5.420;2023-02-22T07:55:36;101389.09;;;4.71;96.88
71770;BME280;66386;52.122;5.420;2023-02-22T07:58:06;101379.75;;;4.70;96.95
71770;BME280;66386;52.122;5.420;2023-02-22T08:00:35;101393.31;;;4.75;96.93
71770;BME280;66386;52.122;5.420;2023-02-22T08:03:05;101387.38;;;4.81;96.81
71770;BME280;66386;52.122;5.420;2023-02-22T08:05:35;101398.38;;;4.84;96.98
71770;BME280;66386;52.122;5.420;2023-02-22T08:08:03;101393.28;;;4.86;97.07
71770;BME280;66386;52.122;5.420;2023-02-22T08:10:32;101387.34;;;4.85;96.91
71770;BME280;66386;52.122;5.420;2023-02-22T08:13:00;101390.69;;;4.90;96.98
71770;BME280;66386;52.122;5.420;2023-02-22T08:15:32;101383.91;;;4.94;96.85
71770;BME280;66386;52.122;5.420;2023-02-22T08:18:08;101389.81;;;4.98;96.91
71770;BME280;66386;52.122;5.420;2023-02-22T08:20:36;101393.25;;;4.97;96.93
71770;BME280;66386;52.122;5.420;2023-02-22T08:23:04;101391.53;;;4.99;96.83
71770;BME280;66386;52.122;5.420;2023-02-22T08:25:31;101388.94;;;5.02;96.99
71770;BME280;66386;52.122;5.420;2023-02-22T08:28:06;101388.94;;;5.02;96.88
71770;BME280;66386;52.122;5.420;2023-02-22T08:30:34;101382.19;;;5.02;97.00
71770;BME280;66386;52.122;5.420;2023-02-22T08:33:05;101388.09;;;5.06;96.72
71770;BME280;66386;52.122;5.420;2023-02-22T08:35:32;101384.69;;;5.07;96.95
71770;BME280;66386;52.122;5.420;2023-02-22T08:38:05;101377.03;;;5.12;96.71
71770;BME280;66386;52.122;5.420;2023-02-22T08:40:34;101382.94;;;5.15;96.72
71770;BME280;66386;52.122;5.420;2023-02-22T08:43:02;101387.19;;;5.18;96.76
71770;BME280;66386;52.122;5.420;2023-02-22T08:45:29;101388.84;;;5.23;97.02
71770;BME280;66386;52.122;5.420;2023-02-22T08:47:57;101387.13;;;5.29;96.71
71770;BME280;66386;52.122;5.420;2023-02-22T08:50:27;101384.56;;;5.32;96.59
71770;BME280;66386;52.122;5.420;2023-02-22T08:52:56;101387.94;;;5.32;96.32
71770;BME280;66386;52.122;5.420;2023-02-22T08:55:26;101379.44;;;5.35;96.59
71770;BME280;66386;52.122;5.420;2023-02-22T08:57:54;101370.06;;;5.35;96.30
71770;BME280;66386;52.122;5.420;2023-02-22T09:00:21;101372.59;;;5.40;96.14
71770;BME280;66386;52.122;5.420;2023-02-22T09:02:51;101361.53;;;5.44;96.04
71770;BME280;66386;52.122;5.420;2023-02-22T09:05:18;101361.47;;;5.50;95.78
71770;BME280;66386;52.122;5.420;2023-02-22T09:07:45;101351.25;;;5.53;95.78
71770;BME280;66386;52.122;5.420;2023-02-22T09:10:14;101354.59;;;5.62;95.77
71770;BME280;66386;52.122;5.420;2023-02-22T09:12:41;101354.56;;;5.66;95.62
71770;BME280;66386;52.122;5.420;2023-02-22T09:15:08;101357.06;;;5.69;95.48
71770;BME280;66386;52.122;5.420;2023-02-22T09:17:35;101352.72;;;5.81;95.47
71770;BME280;66386;52.122;5.420;2023-02-22T09:20:04;101344.22;;;5.82;95.03
71770;BME280;66386;52.122;5.420;2023-02-22T09:22:31;101342.50;;;5.84;95.21
71770;BME280;66386;52.122;5.420;2023-02-22T09:24:58;101346.75;;;5.86;94.73
71770;BME280;66386;52.122;5.420;2023-02-22T09:27:33;101352.63;;;5.94;94.85
71770;BME280;66386;52.122;5.420;2023-02-22T09:29:59;101349.19;;;6.02;94.80
71770;BME280;66386;52.122;5.420;2023-02-22T09:32:25;101356.75;;;6.09;94.63
71770;BME280;66386;52.122;5.420;2023-02-22T09:34:53;101345.69;;;6.10;94.36
71770;BME280;66386;52.122;5.420;2023-02-22T09:37:20;101346.53;;;6.11;94.28
71770;BME280;66386;52.122;5.420;2023-02-22T09:39:47;101343.16;;;6.10;94.11
71770;BME280;66386;52.122;5.420;2023-02-22T09:42:34;101336.31;;;6.11;93.97
71770;BME280;66386;52.122;5.420;2023-02-22T09:45:07;101334.66;;;6.08;93.83
71770;BME280;66386;52.122;5.420;2023-02-22T09:47:42;101338.03;;;6.12;93.57
71770;BME280;66386;52.122;5.420;2023-02-22T09:50:16;101332.88;;;6.17;93.67
71770;BME280;66386;52.122;5.420;2023-02-22T09:56:05;101311.38;;;6.36;93.33
71770;BME280;66386;52.122;5.420;2023-02-22T09:58:35;101308.72;;;6.42;93.46
71770;BME280;66386;52.122;5.420;2023-02-22T10:01:21;101318.00;;;6.51;92.94
71770;BME280;66386;52.122;5.420;2023-02-22T10:04:08;101313.59;;;6.62;93.21
71770;BME280;66386;52.122;5.420;2023-02-22T10:06:37;101312.75;;;6.63;92.71
71770;BME280;66386;52.122;5.420;2023-02-22T10:09:08;101304.06;;;6.77;92.73
71770;BME280;66386;52.122;5.420;2023-02-22T10:11:47;101296.19;;;6.92;92.29
71770;BME280;66386;52.122;5.420;2023-02-22T10:23:11;101295.75;;;7.22;91.32
71770;BME280;66386;52.122;5.420;2023-02-22T10:25:43;101298.03;;;7.37;91.09
71770;BME280;66386;52.122;5.420;2023-02-22T10:28:16;101302.03;;;7.55;90.72
71770;BME280;66386;52.122;5.420;2023-02-22T10:30:53;101293.25;;;7.70;90.44
71770;BME280;66386;52.122;5.420;2023-02-22T10:33:32;101296.38;;;7.86;90.03
71770;BME280;66386;52.122;5.420;2023-02-22T10:36:02;101297.06;;;7.94;89.72
71770;BME280;66386;52.122;5.420;2023-02-22T10:38:31;101287.78;;;7.90;88.99
71770;BME280;66386;52.122;5.420;2023-02-22T10:43:36;101297.25;;;7.85;88.38
71770;BME280;66386;52.122;5.420;2023-02-22T10:46:04;101292.97;;;7.84;88.52
71770;BME280;66386;52.122;5.420;2023-02-22T10:48:36;101290.47;;;7.82;87.85
71770;BME280;66386;52.122;5.420;2023-02-22T10:51:06;101292.97;;;7.84;88.04
71770;BME280;66386;52.122;5.420;2023-02-22T10:53:35;101296.31;;;7.89;88.09
71770;BME280;66386;52.122;5.420;2023-02-22T10:58:57;101292.00;;;7.91;87.32
71770;BME280;66386;52.122;5.420;2023-02-22T11:04:04;101294.47;;;7.97;87.84
71770;BME280;66386;52.122;5.420;2023-02-22T11:06:33;101279.78;;;8.06;87.61
71770;BME280;66386;52.122;5.420;2023-02-22T11:09:09;101287.38;;;8.10;87.39
71770;BME280;66386;52.122;5.420;2023-02-22T11:11:36;101278.75;;;8.16;87.19
71770;BME280;66386;52.122;5.420;2023-02-22T11:14:03;101282.03;;;8.23;87.08
71770;BME280;66386;52.122;5.420;2023-02-22T11:16:35;101280.22;;;8.28;86.77
71770;BME280;66386;52.122;5.420;2023-02-22T11:19:20;101281.03;;;8.30;86.70
71770;BME280;66386;52.122;5.420;2023-02-22T11:21:51;101277.47;;;8.37;86.99
71770;BME280;66386;52.122;5.420;2023-02-22T11:24:21;101284.22;;;8.39;87.04
71770;BME280;66386;52.122;5.420;2023-02-22T11:27:27;101274.75;;;8.46;86.92
71770;BME280;66386;52.122;5.420;2023-02-22T11:30:07;101272.97;;;8.50;86.86
71770;BME280;66386;52.122;5.420;2023-02-22T11:32:42;101275.41;;;8.56;86.57
71770;BME280;66386;52.122;5.420;2023-02-22T11:35:31;101277.03;;;8.60;86.60
71770;BME280;66386;52.122;5.420;2023-02-22T11:38:14;101271.06;;;8.58;86.67
71770;BME280;66386;52.122;5.420;2023-02-22T11:40:42;101263.22;;;8.66;86.41
71770;BME280;66386;52.122;5.420;2023-02-22T11:43:15;101267.38;;;8.71;84.99
71770;BME280;66386;52.122;5.420;2023-02-22T11:46:00;101260.66;;;8.66;84.41
71770;BME280;66386;52.122;5.420;2023-02-22T11:48:31;101258.88;;;8.69;84.87
71770;BME280;66386;52.122;5.420;2023-02-22T11:59:57;101248.53;;;8.74;84.64
71770;BME280;66386;52.122;5.420;2023-02-22T12:08:35;101234.41;;;8.56;85.00
71770;BME280;66386;52.122;5.420;2023-02-22T12:11:22;101225.88;;;8.55;85.31
71770;BME280;66386;52.122;5.420;2023-02-22T12:16:46;101239.53;;;8.56;85.76
71770;BME280;66386;52.122;5.420;2023-02-22T12:19:32;101235.22;;;8.58;85.87
71770;BME280;66386;52.122;5.420;2023-02-22T12:22:04;101233.56;;;8.55;85.70
71770;BME280;66386;52.122;5.420;2023-02-22T12:24:40;101230.94;;;8.59;85.94
71770;BME280;66386;52.122;5.420;2023-02-22T12:27:10;101230.81;;;8.65;86.33
71770;BME280;66386;52.122;5.420;2023-02-22T12:29:45;101235.00;;;8.69;86.30
71770;BME280;66386;52.122;5.420;2023-02-22T12:34:53;101230.50;;;8.77;85.55
71770;BME280;66386;52.122;5.420;2023-02-22T12:40:03;101220.97;;;8.84;85.95
71770;BME280;66386;52.122;5.420;2023-02-22T12:45:55;101217.16;;;9.00;85.69
71770;BME280;66386;52.122;5.420;2023-02-22T12:48:38;101213.41;;;9.14;85.25
71770;BME280;66386;52.122;5.420;2023-02-22T12:54:24;101215.75;;;9.23;84.28
71770;BME280;66386;52.122;5.420;2023-02-22T12:59:49;101214.06;;;9.22;84.16
71770;BME280;66386;52.122;5.420;2023-02-22T13:02:27;101207.94;;;9.28;84.49
71770;BME280;66386;52.122;5.420;2023-02-22T13:04:54;101206.91;;;9.35;84.26
71770;BME280;66386;52.122;5.420;2023-02-22T13:16:26;101208.53;;;9.37;83.61
71770;BME280;66386;52.122;5.420;2023-02-22T13:21:48;101216.09;;;9.43;83.40
71770;BME280;66386;52.122;5.420;2023-02-22T13:27:36;101211.75;;;9.46;83.66
71770;BME280;66386;52.122;5.420;2023-02-22T13:30:05;101204.09;;;9.44;83.59
71770;BME280;66386;52.122;5.420;2023-02-22T13:35:44;101209.13;;;9.47;83.32
71770;BME280;66386;52.122;5.420;2023-02-22T13:50:29;101198.00;;;9.48;83.07
71770;BME280;66386;52.122;5.420;2023-02-22T13:53:02;101203.94;;;9.50;83.41
71770;BME280;66386;52.122;5.420;2023-02-22T13:55:31;101204.75;;;9.52;83.51
71770;BME280;66386;52.122;5.420;2023-02-22T13:58:05;101210.72;;;9.53;83.43
71770;BME280;66386;52.122;5.420;2023-02-22T14:00:39;101209.91;;;9.51;83.48
71770;BME280;66386;52.122;5.420;2023-02-22T14:10:51;101216.00;;;9.47;83.00
71770;BME280;66386;52.122;5.420;2023-02-22T14:13:19;101210.06;;;9.44;82.53
71770;BME280;66386;52.122;5.420;2023-02-22T14:18:40;101216.91;;;9.44;82.60
71770;BME280;66386;52.122;5.420;2023-02-22T14:21:12;101220.44;;;9.40;82.59
71770;BME280;66386;52.122;5.420;2023-02-22T14:23:50;101220.53;;;9.37;82.59
71770;BME280;66386;52.122;5.420;2023-02-22T14:28:57;101224.13;;;9.30;83.20
71770;BME280;66386;52.122;5.420;2023-02-22T14:31:33;101219.00;;;9.30;83.07
71770;BME280;66386;52.122;5.420;2023-02-22T14:34:11;101222.47;;;9.27;83.42
71770;BME280;66386;52.122;5.420;2023-02-22T14:36:58;101223.28;;;9.29;83.70
71770;BME280;66386;52.122;5.420;2023-02-22T14:42:33;101229.94;;;9.36;83.35
71770;BME280;66386;52.122;5.420;2023-02-22T14:45:22;101229.78;;;9.42;83.47
71770;BME280;66386;52.122;5.420;2023-02-22T14:47:58;101230.56;;;9.44;83.28
71770;BME280;66386;52.122;5.420;2023-02-22T14:53:33;101224.31;;;9.55;83.22
71770;BME280;66386;52.122;5.420;2023-02-22T14:56:06;101220.06;;;9.55;83.18
71770;BME280;66386;52.122;5.420;2023-02-22T14:58:42;101219.19;;;9.55;83.14
71770;BME280;66386;52.122;5.420;2023-02-22T15:01:33;101221.75;;;9.55;83.44
71770;BME280;66386;52.122;5.420;2023-02-22T15:04:28;101216.66;;;9.53;83.25
71770;BME280;66386;52.122;5.420;2023-02-22T15:07:00;101225.34;;;9.49;83.28
71770;BME280;66386;52.122;5.420;2023-02-22T15:09:33;101212.56;;;9.46;83.42
71770;BME280;66386;52.122;5.420;2023-02-22T15:14:34;101218.66;;;9.43;83.84
71770;BME280;66386;52.122;5.420;2023-02-22T15:17:12;101213.59;;;9.40;84.01
71770;BME280;66386;52.122;5.420;2023-02-22T15:19:41;101218.78;;;9.37;84.03
71770;BME280;66386;52.122;5.420;2023-02-22T15:22:23;101216.31;;;9.34;84.13
71770;BME280;66386;52.122;5.420;2023-02-22T15:25:00;101214.66;;;9.33;84.18
71770;BME280;66386;52.122;5.420;2023-02-22T15:27:27;101213.00;;;9.31;84.42
71770;BME280;66386;52.122;5.420;2023-02-22T15:29:59;101224.09;;;9.31;84.45
71770;BME280;66386;52.122;5.420;2023-02-22T15:32:32;101215.59;;;9.29;84.63
71770;BME280;66386;52.122;5.420;2023-02-22T15:35:26;101219.91;;;9.27;84.85